Time;durP1;ratioP1;P1;durP2;ratioP2;P2;SDS_P1;SDS_P2;PMS_P1;PMS_P2;Temp;Humidity;BMP_temperature;BMP_pressure;BME280_temperature;BME280_humidity;BME280_pressure;Samples;Min_cycle;Max_cycle;Signal;HPM_P1;HPM_P2
2021/09/07 00:00:42;;;;;;;31.35;18.67;;;;;;;8.87;69.54;101288.89;1759464;79;25692;-75
2021/09/07 00:03:09;;;;;;;33.00;19.15;;;;;;;8.85;69.21;101289.72;1773296;79;25640;-75
2021/09/07 00:05:35;;;;;;;31.12;18.25;;;;;;;8.83;69.70;101289.98;1720850;81;27891;-76
2021/09/07 00:08:02;;;;;;;32.78;18.07;;;;;;;8.81;69.87;101290.81;1746562;81;25737;-76
2021/09/07 00:10:29;;;;;;;29.48;18.20;;;;;;;8.77;69.65;101287.84;1725642;82;25902;-75
2021/09/07 00:12:55;;;;;;;31.30;18.27;;;;;;;8.76;69.64;101290.81;1697612;82;26317;-76
2021/09/07 00:15:22;;;;;;;32.85;17.92;;;;;;;8.74;69.65;101284.34;1737488;80;25736;-75
2021/09/07 00:17:49;;;;;;;30.90;15.88;;;;;;;8.73;69.97;101279.21;1695076;82;27339;-75
2021/09/07 00:20:16;;;;;;;28.70;17.77;;;;;;;8.70;69.98;101279.23;1708485;82;25667;-75
2021/09/07 00:22:43;;;;;;;32.90;18.32;;;;;;;8.69;70.01;101282.20;1740680;81;25759;-75
2021/09/07 00:25:11;;;;;;;29.12;16.67;;;;;;;8.69;70.04;101278.16;1758236;80;25462;-75
2021/09/07 00:27:38;;;;;;;33.02;17.37;;;;;;;8.67;70.13;101278.42;1748926;81;25913;-75
2021/09/07 00:30:05;;;;;;;31.50;17.80;;;;;;;8.66;70.09;101272.75;1747224;81;27299;-75
2021/09/07 00:32:32;;;;;;;30.62;16.60;;;;;;;8.64;70.06;101273.56;1746497;80;25783;-75
2021/09/07 00:34:59;;;;;;;30.25;16.15;;;;;;;8.64;70.22;101276.81;1740856;80;25446;-75
2021/09/07 00:37:25;;;;;;;23.60;15.18;;;;;;;8.63;70.25;101274.63;1744646;81;25696;-75
2021/09/07 00:39:51;;;;;;;29.02;16.32;;;;;;;8.63;70.18;101272.48;1754996;80;25866;-75
2021/09/07 00:42:18;;;;;;;27.22;14.85;;;;;;;8.62;70.36;101270.34;1746114;80;27839;-75
2021/09/07 00:44:46;;;;;;;26.60;15.65;;;;;;;8.62;70.35;101270.89;1774752;79;25885;-75
2021/09/07 00:47:12;;;;;;;25.60;15.70;;;;;;;8.60;70.47;101267.91;1773371;79;25384;-76
2021/09/07 00:49:39;;;;;;;24.92;15.35;;;;;;;8.61;70.86;101268.71;1765304;79;26407;-75
2021/09/07 00:52:06;;;;;;;25.72;15.85;;;;;;;8.62;70.98;101261.45;1783263;79;25744;-76
2021/09/07 00:54:37;;;;;;;28.50;16.02;;;;;;;8.62;70.98;101259.55;1781118;79;27239;-76
2021/09/07 00:57:07;;;;;;;26.33;15.53;;;;;;;8.62;70.76;101258.75;1777136;79;25481;-75
2021/09/07 00:59:35;;;;;;;25.90;15.20;;;;;;;8.60;70.97;101250.37;1779367;79;25801;-75
2021/09/07 01:02:05;;;;;;;25.82;15.40;;;;;;;8.57;70.73;101254.97;1770556;79;25795;-75
2021/09/07 01:04:34;;;;;;;27.02;14.85;;;;;;;8.58;70.72;101259.81;1772653;78;25498;-75
2021/09/07 01:07:05;;;;;;;24.18;13.95;;;;;;;8.58;70.93;101251.20;1764290;79;27341;-76
2021/09/07 01:09:32;;;;;;;24.27;13.40;;;;;;;8.58;71.01;101257.94;1775037;79;25869;-76
2021/09/07 01:11:59;;;;;;;23.22;13.05;;;;;;;8.57;70.90;101250.92;1779654;79;25427;-77
2021/09/07 01:14:37;;;;;;;20.70;12.70;;;;;;;8.56;71.10;101253.37;1775269;78;25741;-76
2021/09/07 01:17:17;;;;;;;27.87;14.18;;;;;;;8.56;70.96;101249.32;1758614;79;25797;-75
2021/09/07 01:19:47;;;;;;;23.70;13.32;;;;;;;8.56;71.20;101248.48;1770621;79;26997;-75
2021/09/07 01:22:18;;;;;;;20.37;12.85;;;;;;;8.55;71.36;101238.25;1740504;81;25671;-74
2021/09/07 01:24:46;;;;;;;23.40;12.35;;;;;;;8.56;71.41;101241.23;1742497;81;25769;-74
2021/09/07 01:27:13;;;;;;;22.65;13.03;;;;;;;8.58;71.59;101234.19;1744788;81;25858;-75
2021/09/07 01:29:41;;;;;;;22.65;13.38;;;;;;;8.59;71.67;101237.97;1746063;81;25731;-74
2021/09/07 01:32:10;;;;;;;21.62;12.58;;;;;;;8.60;71.81;101236.90;1752323;80;27331;-74
2021/09/07 01:34:38;;;;;;;19.40;12.05;;;;;;;8.60;71.64;101231.50;1706875;83;26049;-75
2021/09/07 01:37:05;;;;;;;20.77;12.37;;;;;;;8.60;71.52;101234.20;1779109;79;25819;-75
2021/09/07 01:39:31;;;;;;;21.02;12.23;;;;;;;8.60;71.60;101228.80;1777062;79;26440;-75
2021/09/07 01:41:59;;;;;;;21.87;12.50;;;;;;;8.61;71.69;101232.30;1761850;79;25513;-75
2021/09/07 01:44:27;;;;;;;21.02;12.50;;;;;;;8.60;71.55;101226.66;1778149;79;27427;-76
2021/09/07 01:46:53;;;;;;;20.10;12.07;;;;;;;8.59;71.62;101225.83;1782260;79;25751;-74
2021/09/07 01:49:20;;;;;;;19.07;12.00;;;;;;;8.59;71.45;101223.69;1772284;79;25595;-74
2021/09/07 01:51:47;;;;;;;20.80;11.97;;;;;;;8.55;71.27;101226.12;1779496;79;25641;-75
2021/09/07 01:54:14;;;;;;;21.95;13.10;;;;;;;8.53;71.17;101223.41;1780863;79;25809;-75
2021/09/07 01:56:41;;;;;;;20.85;11.88;;;;;;;8.51;71.19;101218.84;1779508;79;27360;-75
2021/09/07 01:59:09;;;;;;;20.65;11.73;;;;;;;8.50;71.25;101218.59;1747133;81;25802;-75
2021/09/07 02:01:36;;;;;;;19.67;12.30;;;;;;;8.48;71.40;101217.51;1753967;80;25415;-75
2021/09/07 02:04:03;;;;;;;22.07;12.70;;;;;;;8.45;71.28;101216.70;1742139;81;26236;-73
2021/09/07 02:06:29;;;;;;;20.92;11.93;;;;;;;8.45;71.37;101219.94;1710348;82;25851;-74
2021/09/07 02:08:56;;;;;;;19.07;12.10;;;;;;;8.41;71.35;101220.97;1703619;82;28203;-75
2021/09/07 02:11:22;;;;;;;21.33;13.03;;;;;;;8.37;71.21;101218.02;1773344;79;25847;-75
2021/09/07 02:13:49;;;;;;;21.57;12.60;;;;;;;8.35;71.27;101222.07;1773837;79;26402;-73
2021/09/07 02:16:15;;;;;;;21.68;11.38;;;;;;;8.33;71.38;101220.98;1780460;79;25946;-73
2021/09/07 02:18:43;;;;;;;18.70;11.97;;;;;;;8.31;71.32;101212.89;1779482;78;25730;-74
2021/09/07 02:21:09;;;;;;;19.77;11.97;;;;;;;8.30;71.41;101211.30;1779842;79;27368;-74
2021/09/07 02:23:35;;;;;;;20.85;11.90;;;;;;;8.28;71.46;101204.83;1776923;79;25694;-72
2021/09/07 02:26:02;;;;;;;23.30;12.07;;;;;;;8.28;71.40;101210.77;1769314;79;25567;-74
2021/09/07 02:28:28;;;;;;;17.55;11.75;;;;;;;8.25;71.59;101209.40;1779977;79;26221;-73
2021/09/07 02:30:55;;;;;;;18.98;11.33;;;;;;;8.25;71.72;101206.70;1775753;79;25856;-73
2021/09/07 02:33:21;;;;;;;19.82;11.68;;;;;;;8.25;71.65;101208.05;1774581;78;27278;-73
2021/09/07 02:35:48;;;;;;;18.02;10.93;;;;;;;8.25;71.73;101213.99;1767105;79;25840;-72
2021/09/07 02:38:14;;;;;;;18.77;10.72;;;;;;;8.25;71.64;101214.80;1776486;78;25692;-73
2021/09/07 02:40:41;;;;;;;16.25;10.58;;;;;;;8.23;71.60;101213.71;1776494;79;26166;-74
2021/09/07 02:43:07;;;;;;;19.23;11.48;;;;;;;8.22;71.60;101212.63;1775283;78;25651;-72
2021/09/07 02:45:34;;;;;;;17.07;10.60;;;;;;;8.21;71.72;101214.53;1745436;80;27426;-74
2021/09/07 02:48:00;;;;;;;20.30;11.38;;;;;;;8.20;71.68;101213.45;1777704;79;25759;-74
2021/09/07 02:50:27;;;;;;;17.77;10.45;;;;;;;8.19;71.97;101211.85;1776525;79;25626;-74
2021/09/07 02:52:53;;;;;;;18.62;10.40;;;;;;;8.18;72.19;101212.37;1777965;79;25941;-72
2021/09/07 02:55:21;;;;;;;16.77;10.30;;;;;;;8.19;72.11;101207.80;1776994;79;25691;-72
2021/09/07 02:57:47;;;;;;;19.85;10.72;;;;;;;8.17;72.11;101208.08;1780301;78;27085;-72
2021/09/07 03:00:14;;;;;;;14.95;9.50;;;;;;;8.18;72.11;101206.98;1767249;79;25675;-72
2021/09/07 03:02:41;;;;;;;15.95;9.03;;;;;;;8.18;72.20;101211.02;1776697;79;25684;-72
2021/09/07 03:05:08;;;;;;;18.55;10.00;;;;;;;8.17;72.00;101209.42;1767891;80;25775;-71
2021/09/07 03:07:35;;;;;;;20.02;10.18;;;;;;;8.17;72.17;101208.59;1775938;79;25840;-71
2021/09/07 03:10:01;;;;;;;14.00;9.65;;;;;;;8.15;72.25;101206.16;1778925;79;27861;-71
2021/09/07 03:12:28;;;;;;;15.38;9.28;;;;;;;8.14;72.39;101207.26;1778783;79;25548;-71
2021/09/07 03:14:54;;;;;;;18.50;9.63;;;;;;;8.12;72.16;101201.34;1774758;80;25624;-71
2021/09/07 03:17:20;;;;;;;16.77;10.20;;;;;;;8.12;72.14;101204.03;1777914;79;25830;-71
2021/09/07 03:19:48;;;;;;;16.45;10.43;;;;;;;8.12;72.55;101204.55;1779631;79;25765;-72
2021/09/07 03:22:15;;;;;;;18.48;11.10;;;;;;;8.12;72.56;101201.86;1775377;79;27306;-71
2021/09/07 03:24:42;;;;;;;16.52;10.35;;;;;;;8.11;72.51;101197.02;1764662;79;25662;-71
2021/09/07 03:27:08;;;;;;;17.98;10.88;;;;;;;8.11;72.56;101196.22;1774034;80;25783;-71
2021/09/07 03:29:34;;;;;;;24.47;10.85;;;;;;;8.09;72.67;101191.09;1751492;79;26118;-71
2021/09/07 03:32:01;;;;;;;23.50;10.58;;;;;;;8.07;72.57;101190.56;1774082;79;25852;-71
2021/09/07 03:34:27;;;;;;;16.70;9.90;;;;;;;8.07;72.68;101187.87;1781247;79;27882;-72
2021/09/07 03:36:53;;;;;;;17.55;9.70;;;;;;;8.04;72.71;101191.89;1751124;80;25700;-72
2021/09/07 03:39:20;;;;;;;17.62;9.68;;;;;;;8.07;72.72;101194.60;1738403;81;25744;-72
2021/09/07 03:41:46;;;;;;;16.07;10.08;;;;;;;8.06;72.79;101186.23;1743272;81;26448;-74
2021/09/07 03:44:13;;;;;;;16.95;10.18;;;;;;;8.04;72.76;101189.20;1757025;81;25780;-74
2021/09/07 03:46:39;;;;;;;17.50;9.80;;;;;;;8.04;72.83;101191.89;1734556;81;27308;-74
2021/09/07 03:49:06;;;;;;;20.90;9.90;;;;;;;8.03;72.64;101196.20;1747200;80;25610;-74
2021/09/07 03:51:32;;;;;;;18.55;10.98;;;;;;;8.01;72.81;101200.51;1749833;80;25522;-74
2021/09/07 03:53:58;;;;;;;17.73;9.98;;;;;;;8.00;72.79;101196.73;1749363;80;26133;-74
2021/09/07 03:56:27;;;;;;;14.35;9.33;;;;;;;7.99;72.69;101203.22;1709404;83;25811;-73
2021/09/07 03:58:53;;;;;;;20.60;10.40;;;;;;;7.96;72.71;101186.23;1697677;82;28018;-73
2021/09/07 04:01:19;;;;;;;16.40;10.15;;;;;;;7.96;72.82;101194.32;1707444;83;25640;-74
2021/09/07 04:03:46;;;;;;;14.65;9.58;;;;;;;7.95;72.89;101185.95;1714434;81;25942;-74
2021/09/07 04:06:13;;;;;;;17.30;10.40;;;;;;;7.93;72.99;101188.92;1712705;81;25813;-74
2021/09/07 04:08:39;;;;;;;17.82;10.70;;;;;;;7.92;73.00;101193.26;1714285;80;25855;-74
2021/09/07 04:11:06;;;;;;;16.50;9.20;;;;;;;7.91;73.02;101187.59;1717866;81;27873;-74
2021/09/07 04:13:32;;;;;;;18.17;9.78;;;;;;;7.90;73.11;101189.48;1713229;82;25634;-74
2021/09/07 04:15:58;;;;;;;19.95;10.25;;;;;;;7.91;73.25;101182.20;1717020;81;26077;-74
2021/09/07 04:18:26;;;;;;;15.75;8.70;;;;;;;7.92;73.31;101194.05;1718687;82;26027;-74
2021/09/07 04:20:53;;;;;;;20.48;9.85;;;;;;;7.91;73.21;101187.03;1708485;82;25451;-74
2021/09/07 04:23:19;;;;;;;13.78;9.70;;;;;;;7.91;73.28;101189.73;1720133;81;27382;-73
2021/09/07 04:25:48;;;;;;;15.40;9.63;;;;;;;7.91;73.43;101187.03;1719949;81;25766;-72
2021/09/07 04:28:15;;;;;;;16.32;9.13;;;;;;;7.92;73.32;101190.56;1710038;81;25875;-72
2021/09/07 04:30:42;;;;;;;19.20;9.50;;;;;;;7.92;73.48;101194.05;1778475;79;25781;-72
2021/09/07 04:33:08;;;;;;;18.57;9.20;;;;;;;7.90;73.37;101190.83;1773741;79;25648;-72
2021/09/07 04:35:35;;;;;;;15.45;9.10;;;;;;;7.90;73.40;101190.00;1775819;78;28115;-72
2021/09/07 04:38:01;;;;;;;15.85;9.15;;;;;;;7.91;73.68;101197.81;1772213;78;26377;-72
2021/09/07 04:40:27;;;;;;;14.85;9.25;;;;;;;7.92;73.88;101196.75;1778606;79;26019;-72
2021/09/07 04:42:54;;;;;;;18.35;9.48;;;;;;;7.94;73.94;101197.83;1755066;80;25768;-74
2021/09/07 04:45:20;;;;;;;18.27;9.00;;;;;;;7.97;74.05;101194.60;1758890;79;25644;-73
2021/09/07 04:47:47;;;;;;;17.07;9.90;;;;;;;8.00;74.13;101204.82;1769398;78;27264;-73
2021/09/07 04:50:14;;;;;;;13.45;8.73;;;;;;;8.04;74.32;101205.37;1773761;79;25643;-73
2021/09/07 04:52:41;;;;;;;16.90;9.05;;;;;;;8.08;74.37;101205.63;1779766;79;26535;-73
2021/09/07 04:55:08;;;;;;;19.92;9.00;;;;;;;8.13;74.49;101206.18;1750965;80;25587;-70
2021/09/07 04:57:35;;;;;;;17.17;8.75;;;;;;;8.17;74.39;101211.28;1771355;79;25402;-72
2021/09/07 05:00:01;;;;;;;14.05;9.15;;;;;;;8.21;74.66;101206.44;1770274;79;27279;-72
2021/09/07 05:02:32;;;;;;;12.50;8.43;;;;;;;8.26;74.73;101211.03;1772414;78;25722;-72
2021/09/07 05:04:58;;;;;;;16.45;8.75;;;;;;;8.32;74.83;101207.23;1771992;78;25694;-72
2021/09/07 05:07:24;;;;;;;12.53;8.18;;;;;;;8.37;74.77;101207.23;1735087;80;25777;-72
2021/09/07 05:09:51;;;;;;;19.30;9.08;;;;;;;8.47;75.07;101206.99;1756110;80;25441;-72
2021/09/07 05:12:17;;;;;;;17.42;9.63;;;;;;;8.53;74.95;101212.11;1755274;80;27288;-73
2021/09/07 05:14:43;;;;;;;13.50;8.38;;;;;;;8.60;74.85;101210.48;1761786;79;25955;-72
2021/09/07 05:17:11;;;;;;;13.58;8.98;;;;;;;8.70;75.24;101204.23;1749397;80;25482;-72
2021/09/07 05:19:37;;;;;;;14.15;8.43;;;;;;;8.79;75.03;101210.70;1750296;80;26269;-72
2021/09/07 05:22:05;;;;;;;15.28;8.50;;;;;;;8.86;74.92;101215.25;1757049;78;25572;-72
2021/09/07 05:24:31;;;;;;;15.03;8.63;;;;;;;8.96;74.65;101211.72;1759010;80;27295;-72
2021/09/07 05:26:57;;;;;;;13.60;8.28;;;;;;;9.04;74.81;101212.51;1777708;80;25865;-71
2021/09/07 05:29:24;;;;;;;17.55;8.80;;;;;;;9.15;74.76;101217.31;1754776;79;25731;-71
2021/09/07 05:31:50;;;;;;;11.60;8.23;;;;;;;9.29;74.99;101210.77;1765079;79;25753;-71
2021/09/07 05:34:17;;;;;;;13.80;8.50;;;;;;;9.42;74.52;101211.52;1766417;79;25554;-71
2021/09/07 05:36:43;;;;;;;16.35;9.23;;;;;;;9.53;74.52;101211.73;1774259;78;27390;-72
2021/09/07 05:39:10;;;;;;;14.73;8.88;;;;;;;9.67;74.96;101215.13;1753217;78;25879;-70
2021/09/07 05:41:37;;;;;;;15.88;8.93;;;;;;;9.81;74.98;101220.19;1772137;79;25667;-71
2021/09/07 05:44:03;;;;;;;15.68;9.03;;;;;;;9.92;74.44;101218.20;1775042;79;25584;-71
2021/09/07 05:46:30;;;;;;;17.67;9.00;;;;;;;10.05;74.02;101226.23;1760199;79;26239;-70
2021/09/07 05:48:56;;;;;;;13.80;9.08;;;;;;;10.18;73.88;101224.23;1778708;79;27282;-70
2021/09/07 05:51:23;;;;;;;15.15;8.23;;;;;;;10.32;73.73;101220.88;1767494;78;25793;-70
2021/09/07 05:53:50;;;;;;;15.35;9.18;;;;;;;10.50;73.65;101224.78;1777578;78;25798;-70
2021/09/07 05:56:17;;;;;;;14.78;8.83;;;;;;;10.68;73.89;101225.98;1770174;79;25676;-70
2021/09/07 05:58:44;;;;;;;22.05;8.65;;;;;;;10.87;73.62;101226.84;1775996;79;26200;-71
2021/09/07 06:01:10;;;;;;;23.62;8.68;;;;;;;11.05;73.55;101232.58;1774425;79;27278;-71
2021/09/07 06:03:37;;;;;;;16.40;9.28;;;;;;;11.24;73.36;101233.97;1764888;80;26370;-71
2021/09/07 06:06:03;;;;;;;12.37;8.60;;;;;;;11.51;73.66;101231.99;1765764;79;25858;-71
2021/09/07 06:08:30;;;;;;;18.65;8.60;;;;;;;11.80;73.38;101239.17;1773061;79;25662;-70
2021/09/07 06:10:56;;;;;;;13.43;7.83;;;;;;;12.05;72.62;101238.81;1778624;79;25949;-71
2021/09/07 06:13:23;;;;;;;21.02;9.00;;;;;;;12.31;71.88;101247.91;1750725;79;27282;-71
2021/09/07 06:15:50;;;;;;;16.07;8.50;;;;;;;12.58;71.44;101247.70;1772106;78;25648;-71
2021/09/07 06:18:16;;;;;;;14.78;8.83;;;;;;;12.81;70.63;101252.16;1769731;79;25644;-70
2021/09/07 06:20:42;;;;;;;18.45;9.03;;;;;;;13.04;70.62;101246.30;1762281;79;25575;-71
2021/09/07 06:23:10;;;;;;;12.60;8.48;;;;;;;13.26;69.08;101252.91;1780881;79;25800;-71
2021/09/07 06:25:36;;;;;;;19.42;8.55;;;;;;;13.42;68.33;101252.88;1780331;78;27424;-70
2021/09/07 06:28:03;;;;;;;18.57;8.28;;;;;;;13.59;68.16;101248.16;1766088;79;25585;-71
2021/09/07 06:30:30;;;;;;;15.55;8.05;;;;;;;13.83;68.44;101245.16;1766706;78;25348;-66
2021/09/07 06:32:57;;;;;;;19.65;9.93;;;;;;;14.11;68.50;101245.61;1767209;79;25717;-68
2021/09/07 06:35:24;;;;;;;16.87;8.15;;;;;;;14.37;68.21;101245.23;1775685;79;25894;-69
2021/09/07 06:37:51;;;;;;;16.27;9.03;;;;;;;14.63;67.68;101243.23;1776198;79;27310;-69
2021/09/07 06:40:17;;;;;;;22.10;8.55;;;;;;;14.92;67.46;101248.72;1772022;79;25398;-65
2021/09/07 06:42:43;;;;;;;18.42;8.60;;;;;;;15.19;66.70;101250.41;1781408;79;25662;-66
2021/09/07 06:45:11;;;;;;;14.45;8.43;;;;;;;15.46;66.16;101254.80;1778867;79;26444;-66
2021/09/07 06:47:37;;;;;;;19.98;9.15;;;;;;;15.74;65.01;101253.70;1780923;79;25771;-66
2021/09/07 06:50:05;;;;;;;21.57;8.80;;;;;;;15.98;65.13;101245.84;1772245;80;27287;-65
2021/09/07 06:52:32;;;;;;;13.85;7.85;;;;;;;16.28;64.50;101243.25;1767642;79;25781;-66
2021/09/07 06:54:59;;;;;;;15.25;7.85;;;;;;;16.56;63.22;101247.73;1767296;79;26354;-66
2021/09/07 06:57:26;;;;;;;13.83;7.37;;;;;;;16.77;62.37;101253.84;1774721;79;25856;-68
2021/09/07 06:59:56;;;;;;;16.97;8.25;;;;;;;16.96;61.67;101255.66;1774835;79;26141;-66
2021/09/07 07:02:23;;;;;;;15.98;7.95;;;;;;;17.17;61.41;101254.91;1777185;79;27300;-66
2021/09/07 07:04:49;;;;;;;19.95;7.50;;;;;;;17.48;61.30;101257.85;1780227;79;25558;-66
2021/09/07 07:07:16;;;;;;;15.32;7.33;;;;;;;17.78;60.38;101255.07;1767692;79;25740;-65
2021/09/07 07:09:42;;;;;;;16.17;7.12;;;;;;;18.04;59.93;101248.02;1766428;79;26394;-65
2021/09/07 07:12:09;;;;;;;15.03;6.72;;;;;;;18.33;59.50;101245.71;1778373;79;25892;-65
2021/09/07 07:14:35;;;;;;;17.48;8.65;;;;;;;18.63;58.88;101243.61;1777685;79;27276;-65
2021/09/07 07:17:02;;;;;;;14.30;6.67;;;;;;;18.87;57.85;101238.53;1770594;79;25507;-66
2021/09/07 07:19:28;;;;;;;17.50;6.53;;;;;;;19.09;56.84;101239.43;1769030;79;25808;-65
2021/09/07 07:21:55;;;;;;;12.60;6.47;;;;;;;19.30;56.53;101231.63;1772884;79;25777;-66
2021/09/07 07:24:22;;;;;;;10.55;6.37;;;;;;;19.55;56.20;101240.03;1762766;80;25587;-66
2021/09/07 07:26:48;;;;;;;13.35;6.67;;;;;;;19.88;55.66;101233.55;1778162;79;29433;-66
2021/09/07 07:29:15;;;;;;;14.73;6.95;;;;;;;20.24;55.12;101233.72;1778654;79;25516;-66
2021/09/07 07:31:43;;;;;;;11.88;6.37;;;;;;;20.57;54.36;101230.66;1765058;79;25781;-65
2021/09/07 07:34:09;;;;;;;14.33;6.85;;;;;;;20.89;53.68;101225.16;1780303;79;25665;-65
2021/09/07 07:36:35;;;;;;;13.38;5.75;;;;;;;21.19;53.00;101226.05;1771364;79;25472;-65
2021/09/07 07:39:04;;;;;;;14.18;6.05;;;;;;;21.48;52.36;101233.59;1779358;79;28038;-65
2021/09/07 07:41:31;;;;;;;13.35;6.28;;;;;;;21.72;51.57;101238.02;1779602;79;25768;-67
2021/09/07 07:43:57;;;;;;;11.75;5.95;;;;;;;21.94;50.68;101240.03;1770335;79;25781;-66
2021/09/07 07:46:24;;;;;;;13.05;6.05;;;;;;;22.22;50.17;101244.50;1779944;80;27717;-67
2021/09/07 07:48:50;;;;;;;13.32;5.65;;;;;;;22.53;49.59;101247.63;1772780;79;25662;-67
2021/09/07 07:51:17;;;;;;;16.12;6.25;;;;;;;22.87;49.25;101247.01;1778593;80;27318;-67
2021/09/07 07:53:44;;;;;;;11.90;5.75;;;;;;;23.17;48.31;101243.53;1779610;79;27144;-67
2021/09/07 07:56:10;;;;;;;11.18;5.12;;;;;;;23.39;47.04;101244.03;1771282;79;25454;-66
2021/09/07 07:58:37;;;;;;;9.03;5.50;;;;;;;23.70;46.50;101240.70;1772056;79;25626;-67
2021/09/07 08:01:03;;;;;;;11.45;5.62;;;;;;;23.84;45.55;101242.86;1773799;79;25505;-67
2021/09/07 08:03:30;;;;;;;10.48;5.97;;;;;;;24.05;45.39;101240.32;1775247;79;27303;-66
2021/09/07 08:05:57;;;;;;;11.48;5.35;;;;;;;24.38;45.09;101251.70;1768186;78;25852;-66
2021/09/07 08:08:23;;;;;;;11.63;5.00;;;;;;;24.70;44.20;101254.78;1776158;79;25233;-66
2021/09/07 08:10:49;;;;;;;13.68;5.22;;;;;;;24.94;43.31;101249.83;1780495;79;25671;-66
2021/09/07 08:13:16;;;;;;;10.63;4.95;;;;;;;25.20;43.06;101252.16;1771563;79;25711;-66
2021/09/07 08:15:42;;;;;;;13.45;5.25;;;;;;;25.43;41.43;101261.63;1778076;78;27694;-66
2021/09/07 08:18:09;;;;;;;13.08;5.47;;;;;;;25.58;41.66;101259.73;1767113;79;25712;-65
2021/09/07 08:20:38;;;;;;;11.05;5.12;;;;;;;25.94;41.85;101263.42;1767152;80;25603;-65
2021/09/07 08:23:05;;;;;;;12.53;5.15;;;;;;;26.35;41.16;101270.07;1772408;79;25693;-66
2021/09/07 08:25:32;;;;;;;16.02;5.05;;;;;;;26.69;40.34;101272.51;1759496;79;25374;-65
2021/09/07 08:27:58;;;;;;;13.05;4.40;;;;;;;26.90;39.23;101267.56;1769392;80;27191;-66
2021/09/07 08:30:25;;;;;;;11.63;5.28;;;;;;;27.15;38.94;101264.72;1764205;79;25655;-66
2021/09/07 08:32:52;;;;;;;12.90;4.78;;;;;;;27.38;38.51;101258.76;1756792;79;25646;-66
2021/09/07 08:35:18;;;;;;;14.50;4.87;;;;;;;27.68;38.04;101262.22;1762972;79;25690;-66
2021/09/07 08:37:45;;;;;;;10.45;5.03;;;;;;;27.93;37.87;101255.18;1774439;79;26019;-65
2021/09/07 08:40:12;;;;;;;9.83;4.25;;;;;;;28.24;37.03;101262.34;1747710;80;27395;-65
2021/09/07 08:42:40;;;;;;;14.38;4.58;;;;;;;28.46;36.43;101259.59;1748690;80;25801;-65
2021/09/07 08:45:12;;;;;;;13.07;5.30;;;;;;;28.74;35.74;101259.80;1765342;79;25601;-66
2021/09/07 08:47:39;;;;;;;11.80;4.92;;;;;;;28.81;34.67;101265.30;1767150;79;25782;-66
2021/09/07 08:50:07;;;;;;;9.63;4.55;;;;;;;28.75;34.51;101264.95;1775118;79;25768;-66
2021/09/07 08:52:33;;;;;;;10.93;4.90;;;;;;;28.88;34.14;101264.64;1758802;79;27376;-67
2021/09/07 08:55:00;;;;;;;10.13;4.80;;;;;;;29.14;33.94;101269.97;1746086;81;25651;-66
2021/09/07 08:57:26;;;;;;;7.17;4.30;;;;;;;29.01;33.20;101266.32;1735666;82;25861;-66
2021/09/07 09:00:05;;;;;;;12.25;4.75;;;;;;;28.99;33.21;101266.53;1711989;83;25840;-67
2021/09/07 09:02:43;;;;;;;;;;;;;;;29.09;33.49;101262.84;1710182;82;25612;-67
2021/09/07 09:05:11;;;;;;;7.67;4.33;;;;;;;29.32;32.95;101269.78;1764921;79;27986;-66
2021/09/07 09:07:38;;;;;;;8.83;4.22;;;;;;;29.50;33.47;101264.02;1755269;79;25610;-67
2021/09/07 09:10:06;;;;;;;9.18;4.33;;;;;;;29.64;32.25;101261.66;1762087;79;26013;-67
2021/09/07 09:12:36;;;;;;;13.38;4.42;;;;;;;29.48;31.48;101253.91;1772400;79;25698;-66
2021/09/07 09:15:16;;;;;;;10.10;4.40;;;;;;;29.45;31.88;101251.94;1760480;80;25366;-66
2021/09/07 09:17:43;;;;;;;7.55;4.08;;;;;;;29.79;32.15;101248.53;1772316;79;27315;-67
2021/09/07 09:20:17;;;;;;;6.60;3.87;;;;;;;29.95;31.26;101243.75;1768766;79;25611;-66
2021/09/07 09:22:54;;;;;;;8.03;4.12;;;;;;;30.07;31.09;101247.96;1743839;80;25877;-67
2021/09/07 09:25:24;;;;;;;5.92;4.03;;;;;;;30.34;31.45;101248.53;1751034;81;26366;-67
2021/09/07 09:28:03;;;;;;;7.30;3.90;;;;;;;30.52;30.52;101246.27;1715344;82;25775;-67
2021/09/07 09:30:46;;;;;;;7.70;3.92;;;;;;;30.67;30.42;101247.45;1703567;82;27223;-68
2021/09/07 09:33:24;;;;;;;6.40;3.40;;;;;;;30.69;29.89;101249.98;1725948;81;25966;-66
2021/09/07 09:35:58;;;;;;;6.92;3.70;;;;;;;30.67;30.01;101246.83;1710609;81;25843;-63
2021/09/07 09:38:29;;;;;;;7.55;3.52;;;;;;;30.78;29.28;101246.63;1717242;81;25644;-62
2021/09/07 09:41:00;;;;;;;7.67;3.37;;;;;;;30.69;28.94;101240.82;1703230;82;25937;-65
2021/09/07 09:43:44;;;;;;;5.45;2.92;;;;;;;30.84;28.93;101243.54;1712663;82;27344;-64
2021/09/07 09:46:24;;;;;;;4.75;3.40;;;;;;;30.96;28.34;101246.97;1723876;82;25530;-64
2021/09/07 09:48:52;;;;;;;4.53;2.77;;;;;;;30.88;27.82;101244.25;1719424;82;25814;-65
2021/09/07 09:51:23;;;;;;;7.05;3.10;;;;;;;30.81;28.11;101246.40;1718429;81;26184;-65
2021/09/07 09:53:51;;;;;;;9.50;3.20;;;;;;;30.70;27.95;101228.45;1710816;83;26534;-67
2021/09/07 09:56:18;;;;;;;8.13;3.27;;;;;;;30.79;27.65;101232.08;1706480;83;27943;-66
2021/09/07 09:58:45;;;;;;;7.12;3.10;;;;;;;30.80;27.65;101231.66;1695232;82;25755;-65
2021/09/07 10:01:11;;;;;;;4.95;3.65;;;;;;;30.84;27.46;101229.58;1707446;83;25822;-65
2021/09/07 10:03:40;;;;;;;8.23;3.35;;;;;;;30.88;27.78;101233.70;1734239;82;26446;-65
2021/09/07 10:06:07;;;;;;;5.85;3.37;;;;;;;30.88;27.50;101228.11;1706579;83;25848;-65
2021/09/07 10:08:41;;;;;;;6.47;3.12;;;;;;;30.43;26.83;101222.31;1750870;81;27304;-65
2021/09/07 10:11:12;;;;;;;7.17;3.37;;;;;;;30.17;27.39;101226.09;1692778;82;25784;-66
2021/09/07 10:13:43;;;;;;;5.87;3.45;;;;;;;30.31;27.72;101222.28;1709121;82;25622;-67
2021/09/07 10:16:15;;;;;;;7.67;2.95;;;;;;;30.61;27.49;101222.61;1737551;80;25542;-65
2021/09/07 10:19:05;;;;;;;4.28;3.25;;;;;;;30.77;27.25;101226.11;1738217;80;25844;-65
2021/09/07 10:26:44;;;;;;;6.45;3.40;;;;;;;30.28;26.71;101227.30;1739354;80;25929;-65
2021/09/07 10:29:20;;;;;;;6.92;3.42;;;;;;;30.03;26.83;101222.11;1735602;80;25678;-66
2021/09/07 10:31:53;;;;;;;5.08;2.83;;;;;;;29.41;27.09;101220.73;1735734;79;25731;-66
2021/09/07 10:34:28;;;;;;;4.83;3.15;;;;;;;28.84;27.34;101222.13;1757727;79;27364;-67
2021/09/07 10:37:09;;;;;;;7.65;3.58;;;;;;;28.30;27.97;101223.95;1765807;78;25832;-67
2021/09/07 10:39:42;;;;;;;6.00;3.83;;;;;;;27.98;28.81;101215.83;1748313;80;25882;-67
2021/09/07 10:42:14;;;;;;;6.97;3.17;;;;;;;28.10;28.78;101213.17;1736281;80;25624;-68
2021/09/07 10:44:43;;;;;;;5.60;3.52;;;;;;;28.18;29.24;101211.12;1750502;79;25836;-70
2021/09/07 10:47:14;;;;;;;7.37;3.35;;;;;;;28.40;29.26;101215.34;1763730;80;27409;-70
2021/09/07 10:49:50;;;;;;;;;;;;;;;28.42;30.07;101211.55;1755264;80;25374;-67
2021/09/07 10:52:27;;;;;;;7.20;3.40;;;;;;;28.35;29.93;101210.80;1745583;79;25796;-69
2021/09/07 10:55:09;;;;;;;6.97;3.12;;;;;;;28.15;29.42;101214.13;1753941;80;27860;-68
2021/09/07 10:57:51;;;;;;;5.42;3.10;;;;;;;27.79;29.87;101208.77;1756388;80;25555;-67
2021/09/07 11:00:26;;;;;;;8.83;3.83;;;;;;;28.03;30.52;101210.45;1748497;80;27327;-67
2021/09/07 11:02:56;;;;;;;8.60;3.90;;;;;;;28.23;30.51;101208.72;1757398;80;25855;-68
2021/09/07 11:05:41;;;;;;;5.08;3.15;;;;;;;28.36;30.13;101201.27;1741285;80;25470;-68
2021/09/07 11:08:17;;;;;;;8.30;3.10;;;;;;;28.44;30.39;101197.22;1758036;79;25630;-68
2021/09/07 11:10:53;;;;;;;4.80;3.30;;;;;;;28.65;30.98;101192.87;1735992;79;25816;-68
2021/09/07 11:13:28;;;;;;;6.55;3.65;;;;;;;28.75;30.02;101184.23;1754035;80;27238;-67
2021/09/07 11:16:00;;;;;;;5.65;3.20;;;;;;;28.69;30.01;101184.51;1739577;80;25728;-69
2021/09/07 11:18:33;;;;;;;6.15;3.80;;;;;;;28.64;30.37;101189.91;1751773;79;25691;-68
2021/09/07 11:21:05;;;;;;;7.92;3.95;;;;;;;28.75;29.91;101188.41;1749112;79;26203;-69
2021/09/07 11:23:35;;;;;;;6.25;3.45;;;;;;;28.58;30.36;101192.94;1753633;80;25584;-68
2021/09/07 11:26:12;;;;;;;5.72;3.70;;;;;;;28.45;29.80;101193.22;1743639;80;27455;-69
2021/09/07 11:28:47;;;;;;;4.03;3.23;;;;;;;28.28;29.83;101194.38;1760265;80;25408;-68
2021/09/07 11:31:14;;;;;;;5.37;3.37;;;;;;;28.21;30.32;101233.34;1751086;80;25905;-66